createdAt,value
2023-01-25T00:00:16.118Z,100332.13
2023-01-25T00:02:42.478Z,100330.94
2023-01-25T00:05:09.232Z,100322.31
2023-01-25T00:07:35.673Z,100326.00
2023-01-25T00:10:01.992Z,100320.91
2023-01-25T00:12:28.351Z,100312.09
2023-01-25T00:14:54.691Z,100311.03
2023-01-25T00:17:21.013Z,100314.38
2023-01-25T00:19:47.458Z,100311.69
2023-01-25T00:22:13.794Z,100318.69
2023-01-25T00:24:40.112Z,100311.69
2023-01-25T00:27:06.427Z,100310.06
2023-01-25T00:29:32.735Z,100310.31
2023-01-25T00:32:02.813Z,100301.25
2023-01-25T00:34:29.826Z,100302.28
2023-01-25T00:36:57.153Z,100293.66
2023-01-25T00:39:23.566Z,100292.06
2023-01-25T00:41:49.884Z,100285.09
2023-01-25T00:44:16.210Z,100280.41
2023-01-25T00:46:42.537Z,100279.38
2023-01-25T00:49:16.151Z,100285.16
2023-01-25T00:51:42.472Z,100281.88
2023-01-25T00:54:08.813Z,100278.22
2023-01-25T00:56:35.131Z,100278.44
2023-01-25T00:59:01.444Z,100273.53
2023-01-25T01:01:27.820Z,100263.28
2023-01-25T01:03:54.203Z,100262.72
2023-01-25T01:06:20.556Z,100269.28
2023-01-25T01:08:46.966Z,100268.47
2023-01-25T01:11:13.291Z,100269.28
2023-01-25T01:13:39.652Z,100268.69
2023-01-25T01:16:08.315Z,100272.59
2023-01-25T01:18:35.221Z,100272.81
2023-01-25T01:21:01.555Z,100271.41
2023-01-25T01:23:28.052Z,100264.44
2023-01-25T01:25:54.371Z,100277.41
2023-01-25T01:28:20.820Z,100267.75
2023-01-25T01:30:47.170Z,100278.63
2023-01-25T01:33:13.547Z,100272.72
2023-01-25T01:35:39.928Z,100272.72
2023-01-25T01:38:06.577Z,100269.44
2023-01-25T01:40:32.987Z,100269.88
2023-01-25T01:43:06.704Z,100268.03
2023-01-25T01:45:48.432Z,100263.34
2023-01-25T01:48:32.907Z,100267.00
2023-01-25T01:51:00.530Z,100278.72
2023-01-25T01:53:26.872Z,100269.50
2023-01-25T01:55:53.195Z,100259.28
2023-01-25T01:58:20.139Z,100260.72
2023-01-25T02:00:46.691Z,100255.38
2023-01-25T02:03:13.576Z,100257.00
2023-01-25T02:05:41.412Z,100260.50
2023-01-25T02:08:07.872Z,100255.97
2023-01-25T02:10:34.197Z,100250.06
2023-01-25T02:13:00.551Z,100252.72
2023-01-25T02:15:33.616Z,100244.56
2023-01-25T02:17:59.985Z,100245.16
2023-01-25T02:20:39.557Z,100241.28
2023-01-25T02:23:20.951Z,100238.81
2023-01-25T02:25:47.262Z,100235.34
2023-01-25T02:28:14.756Z,100237.63
2023-01-25T02:30:41.568Z,100236.00
2023-01-25T02:33:07.905Z,100240.72
2023-01-25T02:35:37.041Z,100238.06
2023-01-25T02:38:03.466Z,100240.09
2023-01-25T02:40:30.087Z,100237.84
2023-01-25T02:42:56.394Z,100230.09
2023-01-25T02:45:23.022Z,100234.00
2023-01-25T02:47:50.442Z,100225.63
2023-01-25T02:50:16.861Z,100220.50
2023-01-25T02:52:43.192Z,100219.31
2023-01-25T02:55:10.027Z,100228.31
2023-01-25T02:57:36.512Z,100223.44
2023-01-25T03:00:03.416Z,100216.88
2023-01-25T03:02:29.797Z,100209.94
2023-01-25T03:04:56.165Z,100208.47
2023-01-25T03:07:22.479Z,100209.88
2023-01-25T03:09:48.819Z,100198.00
2023-01-25T03:12:15.129Z,100198.00
2023-01-25T03:14:41.454Z,100194.50
2023-01-25T03:17:07.802Z,100186.72
2023-01-25T03:19:34.124Z,100183.25
2023-01-25T03:22:00.435Z,100185.91
2023-01-25T03:24:26.831Z,100184.28
2023-01-25T03:27:11.787Z,100178.34
2023-01-25T03:29:38.355Z,100169.75
2023-01-25T03:32:04.974Z,100165.47
2023-01-25T03:34:31.420Z,100169.97
2023-01-25T03:36:57.794Z,100164.84
2023-01-25T03:39:24.159Z,100162.41
2023-01-25T03:41:50.487Z,100159.97
2023-01-25T03:44:16.813Z,100163.63
2023-01-25T03:46:43.180Z,100160.16
2023-01-25T03:49:09.576Z,100158.13
2023-01-25T03:51:35.938Z,100156.28
2023-01-25T03:54:02.290Z,100152.00
2023-01-25T03:56:28.645Z,100141.78
2023-01-25T03:58:55.055Z,100145.69
2023-01-25T04:01:21.723Z,100145.91
2023-01-25T04:03:48.060Z,100145.09
2023-01-25T04:06:14.376Z,100139.38
2023-01-25T04:08:40.931Z,100147.56
2023-01-25T04:11:07.679Z,100140.59
2023-01-25T04:13:36.919Z,100145.91
2023-01-25T04:16:03.667Z,100137.53
2023-01-25T04:18:29.997Z,100149.78
2023-01-25T04:20:56.505Z,100141.00
2023-01-25T04:23:23.299Z,100134.84
2023-01-25T04:25:53.362Z,100140.41
2023-01-25T04:28:19.675Z,100131.38
2023-01-25T04:30:46.011Z,100138.97
2023-01-25T04:33:12.399Z,100133.06
2023-01-25T04:35:38.715Z,100127.91
2023-01-25T04:38:05.032Z,100127.34
2023-01-25T04:40:31.350Z,100127.56
2023-01-25T04:42:57.941Z,100127.56
2023-01-25T04:45:25.871Z,100122.38
2023-01-25T04:47:58.857Z,100130.38
2023-01-25T04:50:25.211Z,100123.44
2023-01-25T04:52:51.515Z,100121.81
2023-01-25T04:55:17.847Z,100108.91
2023-01-25T04:57:44.201Z,100108.31
2023-01-25T05:00:10.920Z,100103.19
2023-01-25T05:02:37.366Z,100105.84
2023-01-25T05:05:03.761Z,100105.25
2023-01-25T05:07:30.092Z,100111.63
2023-01-25T05:09:56.432Z,100112.03
2023-01-25T05:12:22.751Z,100112.03
2023-01-25T05:14:49.063Z,100113.47
2023-01-25T05:17:15.695Z,100112.06
2023-01-25T05:19:42.019Z,100116.56
2023-01-25T05:22:11.513Z,100105.31
2023-01-25T05:24:41.481Z,100105.53
2023-01-25T05:27:08.529Z,100109.81
2023-01-25T05:29:41.049Z,100105.72
2023-01-25T05:32:08.244Z,100103.84
2023-01-25T05:34:34.674Z,100102.00
2023-01-25T05:37:01.058Z,100104.44
2023-01-25T05:39:27.388Z,100098.75
2023-01-25T05:41:53.708Z,100101.59
2023-01-25T05:44:20.048Z,100095.91
2023-01-25T05:46:46.376Z,100095.09
2023-01-25T05:49:12.697Z,100097.16
2023-01-25T05:51:39.108Z,100093.44
2023-01-25T05:54:05.890Z,100098.34
2023-01-25T05:56:32.517Z,100095.69
2023-01-25T05:58:59.130Z,100092.22
2023-01-25T06:01:25.458Z,100086.91
2023-01-25T06:03:51.868Z,100095.91
2023-01-25T06:06:18.269Z,100093.44
2023-01-25T06:08:44.603Z,100086.09
2023-01-25T06:11:11.370Z,100089.78
2023-01-25T06:13:37.677Z,100084.06
2023-01-25T06:16:04.739Z,100078.94
2023-01-25T06:18:31.555Z,100082.63
2023-01-25T06:20:57.940Z,100084.69
2023-01-25T06:23:24.274Z,100081.22
2023-01-25T06:25:50.599Z,100071.22
2023-01-25T06:28:16.910Z,100067.34
2023-01-25T06:30:43.259Z,100071.84
2023-01-25T06:33:09.786Z,100075.31
2023-01-25T06:35:36.630Z,100076.34
2023-01-25T06:38:02.964Z,100074.09
2023-01-25T06:40:29.340Z,100071.22
2023-01-25T06:42:55.666Z,100074.69
2023-01-25T06:45:22.047Z,100076.53
2023-01-25T06:47:48.576Z,100077.34
2023-01-25T06:50:14.964Z,100074.09
2023-01-25T06:52:41.301Z,100074.09
2023-01-25T06:55:08.510Z,100068.78
2023-01-25T06:57:34.986Z,100077.78
2023-01-25T07:00:01.307Z,100070.00
2023-01-25T07:02:27.643Z,100076.34
2023-01-25T07:04:53.973Z,100073.69
2023-01-25T07:07:20.301Z,100071.66
2023-01-25T07:09:46.670Z,100070.63
2023-01-25T07:12:12.990Z,100069.59
2023-01-25T07:14:39.371Z,100068.56
2023-01-25T07:17:05.703Z,100076.34
2023-01-25T07:19:32.017Z,100074.50
2023-01-25T07:21:58.385Z,100073.69
2023-01-25T07:24:27.206Z,100074.69
2023-01-25T07:26:53.658Z,100069.00
2023-01-25T07:29:19.965Z,100069.41
2023-01-25T07:31:46.340Z,100067.78
2023-01-25T07:34:13.186Z,100073.28
2023-01-25T07:36:39.828Z,100069.03
2023-01-25T07:39:06.180Z,100074.38
2023-01-25T07:41:32.759Z,100076.41
2023-01-25T07:43:59.080Z,100071.22
2023-01-25T07:46:25.404Z,100067.09
2023-01-25T07:48:52.298Z,100064.00
2023-01-25T07:51:29.998Z,100059.03
2023-01-25T07:53:56.938Z,100062.84
2023-01-25T07:56:24.771Z,100064.88
2023-01-25T07:58:54.936Z,100053.63
2023-01-25T08:01:21.810Z,100062.44
2023-01-25T08:03:48.181Z,100057.31
2023-01-25T08:06:14.526Z,100067.75
2023-01-25T08:08:41.770Z,100070.00
2023-01-25T08:11:09.295Z,100067.31
2023-01-25T08:13:35.618Z,100065.88
2023-01-25T08:16:01.947Z,100057.66
2023-01-25T08:18:28.312Z,100056.84
2023-01-25T08:20:57.306Z,100059.16
2023-01-25T08:23:27.612Z,100047.47
2023-01-25T08:25:53.933Z,100048.06
2023-01-25T08:28:20.255Z,100041.72
2023-01-25T08:30:56.959Z,100051.78
2023-01-25T08:33:23.942Z,100040.75
2023-01-25T08:35:56.829Z,100046.47
2023-01-25T08:38:23.222Z,100045.09
2023-01-25T08:40:49.782Z,100042.19
2023-01-25T08:43:16.156Z,100042.88
2023-01-25T08:45:42.698Z,100038.38
2023-01-25T08:48:09.199Z,100031.44
2023-01-25T08:50:35.877Z,100033.91
2023-01-25T08:53:02.959Z,100035.56
2023-01-25T08:55:29.283Z,100025.94
2023-01-25T08:57:56.634Z,100034.69
2023-01-25T09:00:23.799Z,100026.09
2023-01-25T09:02:50.147Z,100025.72
2023-01-25T09:05:16.463Z,100025.31
2023-01-25T09:07:42.889Z,100024.03
2023-01-25T09:10:09.943Z,100023.16
2023-01-25T09:12:36.496Z,100022.97
2023-01-25T09:15:03.350Z,100024.81
2023-01-25T09:17:29.824Z,100028.31
2023-01-25T09:19:56.137Z,100025.03
2023-01-25T09:22:22.484Z,100028.94
2023-01-25T09:24:52.269Z,100028.13
2023-01-25T09:27:18.734Z,100021.97
2023-01-25T09:29:59.967Z,100016.88
2023-01-25T09:32:27.703Z,100016.63
2023-01-25T09:34:54.095Z,100011.72
2023-01-25T09:37:20.498Z,100010.25
2023-01-25T09:39:46.817Z,100005.31
2023-01-25T09:42:29.125Z,100005.91
2023-01-25T09:44:55.397Z,99990.75
2023-01-25T09:47:27.278Z,99977.69
2023-01-25T09:49:56.412Z,99982.41
2023-01-25T09:52:41.556Z,99984.69
2023-01-25T09:55:14.611Z,99979.59
2023-01-25T09:57:41.314Z,99978.16
2023-01-25T10:00:17.013Z,99977.13
2023-01-25T10:03:02.193Z,99976.69
2023-01-25T10:05:29.985Z,99966.00
2023-01-25T10:08:03.827Z,99969.66
2023-01-25T10:10:32.798Z,99960.66
2023-01-25T10:12:59.100Z,99961.47
2023-01-25T10:15:28.764Z,99955.75
2023-01-25T10:17:59.936Z,99953.31
2023-01-25T10:20:28.571Z,99957.19
2023-01-25T10:23:15.085Z,99949.44
2023-01-25T10:26:00.146Z,99949.88
2023-01-25T10:28:32.391Z,99938.19
2023-01-25T10:31:06.409Z,99934.06
2023-01-25T10:33:35.008Z,99935.25
2023-01-25T10:36:02.997Z,99930.59
2023-01-25T10:38:36.551Z,99928.50
2023-01-25T10:41:04.559Z,99925.88
2023-01-25T10:43:30.885Z,99919.56
2023-01-25T10:45:57.388Z,99910.00
2023-01-25T10:48:24.775Z,99913.09
2023-01-25T10:50:52.026Z,99905.34
2023-01-25T10:53:21.339Z,99900.34
2023-01-25T10:56:06.324Z,99900.34
2023-01-25T10:58:33.602Z,99889.19
2023-01-25T11:00:59.903Z,99892.84
2023-01-25T11:03:26.830Z,99892.09
2023-01-25T11:05:53.791Z,99878.97
2023-01-25T11:08:23.137Z,99876.53
2023-01-25T11:10:50.143Z,99872.03
2023-01-25T11:13:16.790Z,99868.72
2023-01-25T11:15:53.095Z,99863.16
2023-01-25T11:18:23.483Z,99855.75
2023-01-25T11:21:05.117Z,99859.03
2023-01-25T11:23:32.276Z,99853.47
2023-01-25T11:26:30.836Z,99854.09
2023-01-25T11:29:12.272Z,99861.03
2023-01-25T11:31:41.826Z,99849.34
2023-01-25T11:34:08.772Z,99837.28
2023-01-25T11:36:38.074Z,99836.84
2023-01-25T11:39:04.542Z,99832.97
2023-01-25T11:41:43.270Z,99832.84
2023-01-25T11:44:09.554Z,99825.13
2023-01-25T11:46:54.722Z,99818.16
2023-01-25T11:49:26.049Z,99804.44
2023-01-25T11:52:07.568Z,99807.31
2023-01-25T11:54:52.646Z,99798.81
2023-01-25T11:57:29.024Z,99793.84
2023-01-25T12:00:27.839Z,99790.72
2023-01-25T12:03:13.896Z,99784.94
2023-01-25T12:05:50.770Z,99770.34
2023-01-25T12:08:25.811Z,99769.22
2023-01-25T12:10:58.161Z,99768.34
2023-01-25T12:13:31.422Z,99756.41
2023-01-25T12:16:10.896Z,99744.44
2023-01-25T12:18:37.682Z,99741.53
2023-01-25T12:21:13.417Z,99735.16
2023-01-25T12:24:00.098Z,99731.19
2023-01-25T12:26:29.892Z,99720.53
2023-01-25T12:28:58.969Z,99716.16
2023-01-25T12:31:27.114Z,99707.56
2023-01-25T12:34:03.204Z,99706.63
2023-01-25T12:36:34.626Z,99703.66
2023-01-25T12:39:02.793Z,99702.81
2023-01-25T12:41:29.038Z,99698.03
2023-01-25T12:43:57.489Z,99702.56
2023-01-25T12:46:25.966Z,99698.59
2023-01-25T12:48:53.242Z,99692.78
2023-01-25T12:51:20.255Z,99687.41
2023-01-25T12:53:49.359Z,99673.59
2023-01-25T12:56:21.812Z,99667.97
2023-01-25T12:58:50.763Z,99666.41
2023-01-25T13:01:29.136Z,99661.41
2023-01-25T13:04:00.015Z,99656.38
2023-01-25T13:06:31.230Z,99645.44
2023-01-25T13:08:59.160Z,99627.78
2023-01-25T13:11:38.971Z,99624.06
2023-01-25T13:14:20.608Z,99619.84
2023-01-25T13:16:50.269Z,99623.09
2023-01-25T13:19:19.115Z,99618.31
2023-01-25T13:21:46.530Z,99607.63
2023-01-25T13:24:16.815Z,99605.28
2023-01-25T13:26:47.917Z,99594.81
2023-01-25T13:29:42.897Z,99588.97
2023-01-25T13:32:36.182Z,99586.78
2023-01-25T13:35:02.618Z,99583.88
2023-01-25T13:37:29.467Z,99590.34
2023-01-25T13:39:56.498Z,99591.22
2023-01-25T13:42:26.245Z,99587.47
2023-01-25T13:44:59.527Z,99583.00
2023-01-25T13:47:26.445Z,99569.63
2023-01-25T13:49:52.684Z,99565.34
2023-01-25T13:52:19.374Z,99564.00
2023-01-25T13:54:46.326Z,99558.31
2023-01-25T13:57:14.384Z,99556.91
2023-01-25T13:59:40.815Z,99556.09
2023-01-25T14:02:13.895Z,99555.31
2023-01-25T14:04:40.288Z,99560.09
2023-01-25T14:07:10.100Z,99555.78
2023-01-25T14:09:36.448Z,99561.44
2023-01-25T14:12:02.918Z,99560.91
2023-01-25T14:14:29.179Z,99555.31
2023-01-25T14:17:10.118Z,99563.56
2023-01-25T14:19:40.316Z,99553.34
2023-01-25T14:24:36.824Z,99539.56
2023-01-25T14:27:03.822Z,99537.97
2023-01-25T14:29:33.189Z,99542.50
2023-01-25T14:31:59.875Z,99541.09
2023-01-25T14:34:26.293Z,99545.31
2023-01-25T14:37:05.833Z,99538.59
2023-01-25T14:39:32.512Z,99534.53
2023-01-25T14:42:01.262Z,99531.03
2023-01-25T14:44:28.117Z,99528.88
2023-01-25T14:47:22.473Z,99525.41
2023-01-25T14:49:48.843Z,99523.84
2023-01-25T14:52:16.515Z,99526.28
2023-01-25T14:54:47.945Z,99525.50
2023-01-25T14:57:33.141Z,99545.78
2023-01-25T14:59:59.464Z,99550.13
2023-01-25T15:02:25.738Z,99543.75
2023-01-25T15:05:04.921Z,99537.91
2023-01-25T15:07:47.285Z,99532.81
2023-01-25T15:10:25.802Z,99530.16
2023-01-25T15:13:04.123Z,99534.44
2023-01-25T15:15:34.390Z,99534.69
2023-01-25T15:18:01.134Z,99532.47
2023-01-25T15:20:37.597Z,99520.69
2023-01-25T15:23:09.232Z,99515.81
2023-01-25T15:25:35.553Z,99514.41
2023-01-25T15:28:01.873Z,99515.69
2023-01-25T15:30:28.276Z,99517.75
2023-01-25T15:32:54.609Z,99509.19
2023-01-25T15:35:21.278Z,99504.31
2023-01-25T15:37:49.249Z,99501.66
2023-01-25T15:40:17.027Z,99501.91
2023-01-25T15:42:43.357Z,99496.81
2023-01-25T15:45:09.866Z,99495.41
2023-01-25T15:47:36.391Z,99495.06
2023-01-25T15:50:03.415Z,99486.50
2023-01-25T15:52:29.739Z,99489.66
2023-01-25T15:55:01.681Z,99481.09
2023-01-25T15:57:31.912Z,99485.84
2023-01-25T15:59:58.431Z,99478.63
2023-01-25T16:02:26.121Z,99467.97
2023-01-25T16:04:53.077Z,99471.47
2023-01-25T16:07:22.094Z,99461.81
2023-01-25T16:09:49.989Z,99472.59
2023-01-25T16:12:16.319Z,99466.22
2023-01-25T16:14:42.703Z,99457.19
2023-01-25T16:17:15.719Z,99450.44
2023-01-25T16:19:42.053Z,99456.03
2023-01-25T16:22:08.498Z,99457.31
2023-01-25T16:24:39.256Z,99458.34
2023-01-25T16:27:05.923Z,99464.50
2023-01-25T16:29:32.272Z,99456.19
2023-01-25T16:31:58.770Z,99456.41
2023-01-25T16:34:25.189Z,99452.38
2023-01-25T16:36:51.809Z,99452.56
2023-01-25T16:39:22.192Z,99453.63
2023-01-25T16:41:48.580Z,99448.53
2023-01-25T16:44:14.909Z,99449.59
2023-01-25T16:46:41.396Z,99454.59
2023-01-25T16:49:10.714Z,99446.19
2023-01-25T16:51:37.071Z,99450.09
2023-01-25T16:54:03.455Z,99448.31
2023-01-25T16:56:30.509Z,99445.53
2023-01-25T16:58:57.414Z,99434.97
2023-01-25T17:01:24.303Z,99437.50
2023-01-25T17:03:50.822Z,99440.84
2023-01-25T17:06:27.809Z,99435.47
2023-01-25T17:08:58.883Z,99434.25
2023-01-25T17:11:25.452Z,99426.97
2023-01-25T17:13:52.834Z,99429.56
2023-01-25T17:16:19.275Z,99438.88
2023-01-25T17:18:45.578Z,99435.94
2023-01-25T17:21:12.635Z,99428.34
2023-01-25T17:23:38.947Z,99426.09
2023-01-25T17:26:05.738Z,99421.88
2023-01-25T17:28:32.148Z,99428.94
2023-01-25T17:30:58.727Z,99415.91
2023-01-25T17:33:25.084Z,99422.44
2023-01-25T17:35:52.500Z,99417.44
2023-01-25T17:38:20.166Z,99406.22
2023-01-25T17:40:46.486Z,99412.94
2023-01-25T17:43:12.815Z,99399.06
2023-01-25T17:45:39.619Z,99399.13
2023-01-25T17:48:06.915Z,99388.72
2023-01-25T17:50:33.470Z,99385.03
2023-01-25T17:52:59.843Z,99393.56
2023-01-25T17:55:26.154Z,99393.56
2023-01-25T17:57:52.479Z,99395.44
2023-01-25T18:00:18.939Z,99394.31
2023-01-25T18:02:45.350Z,99391.13
2023-01-25T18:05:11.697Z,99385.03
2023-01-25T18:07:38.178Z,99379.16
2023-01-25T18:10:04.992Z,99374.84
2023-01-25T18:12:31.349Z,99379.63
2023-01-25T18:14:57.701Z,99382.06
2023-01-25T18:17:24.027Z,99390.31
2023-01-25T18:19:50.438Z,99386.78
2023-01-25T18:22:17.243Z,99381.50
2023-01-25T18:24:44.672Z,99382.88
2023-01-25T18:27:20.634Z,99386.63
2023-01-25T18:29:55.882Z,99378.34
2023-01-25T18:32:22.212Z,99379.69
2023-01-25T18:34:48.555Z,99376.97
2023-01-25T18:37:18.160Z,99378.28
2023-01-25T18:39:45.259Z,99375.09
2023-01-25T18:42:11.582Z,99376.72
2023-01-25T18:44:37.970Z,99368.44
2023-01-25T18:47:04.305Z,99366.25
2023-01-25T18:49:30.623Z,99354.53
2023-01-25T18:52:11.022Z,99357.44
2023-01-25T18:54:38.173Z,99348.88
2023-01-25T18:57:04.570Z,99351.03
2023-01-25T18:59:31.395Z,99353.09
2023-01-25T19:01:57.776Z,99340.97
2023-01-25T19:04:24.092Z,99338.88
2023-01-25T19:06:56.576Z,99329.78
2023-01-25T19:09:24.557Z,99331.66
2023-01-25T19:11:51.295Z,99327.88
2023-01-25T19:14:17.695Z,99323.06
2023-01-25T19:16:44.219Z,99327.88
2023-01-25T19:19:10.603Z,99326.25
2023-01-25T19:21:36.923Z,99315.31
2023-01-25T19:24:03.307Z,99312.84
2023-01-25T19:26:29.883Z,99312.03
2023-01-25T19:28:56.239Z,99314.22
2023-01-25T19:31:26.102Z,99311.56
2023-01-25T19:33:56.073Z,99314.47
2023-01-25T19:36:22.389Z,99299.16
2023-01-25T19:38:48.754Z,99293.00
2023-01-25T19:41:25.027Z,99292.69
2023-01-25T19:43:54.807Z,99287.19
2023-01-25T19:46:21.765Z,99282.41
2023-01-25T19:48:50.064Z,99286.13
2023-01-25T19:51:16.479Z,99278.94
2023-01-25T19:53:47.383Z,99272.25
2023-01-25T19:56:16.097Z,99267.13
2023-01-25T19:58:42.986Z,99266.31
2023-01-25T20:01:09.958Z,99272.72
2023-01-25T20:03:36.508Z,99270.06
2023-01-25T20:06:03.924Z,99271.06
2023-01-25T20:08:30.590Z,99266.19
2023-01-25T20:10:57.527Z,99265.66
2023-01-25T20:13:23.858Z,99254.16
2023-01-25T20:15:50.245Z,99254.06
2023-01-25T20:18:16.590Z,99249.63
2023-01-25T20:20:42.934Z,99249.06
2023-01-25T20:23:09.247Z,99253.03
2023-01-25T20:25:35.568Z,99254.59
2023-01-25T20:28:01.884Z,99249.47
2023-01-25T20:30:28.214Z,99250.53
2023-01-25T20:32:54.534Z,99245.06
2023-01-25T20:35:20.862Z,99235.78
2023-01-25T20:37:49.325Z,99245.13
2023-01-25T20:40:15.862Z,99250.47
2023-01-25T20:42:42.171Z,99244.56
2023-01-25T20:45:11.322Z,99239.19
2023-01-25T20:47:37.801Z,99252.25
2023-01-25T20:50:04.442Z,99242.88
2023-01-25T20:52:30.758Z,99236.72
2023-01-25T20:54:57.200Z,99231.66
2023-01-25T20:57:23.540Z,99237.25
2023-01-25T20:59:49.848Z,99237.47
2023-01-25T21:02:16.221Z,99229.16
2023-01-25T21:04:42.565Z,99225.13
2023-01-25T21:07:09.180Z,99223.44
2023-01-25T21:09:35.540Z,99229.66
2023-01-25T21:12:01.858Z,99226.09
2023-01-25T21:14:28.163Z,99222.63
2023-01-25T21:16:54.474Z,99221.91
2023-01-25T21:19:20.809Z,99218.56
2023-01-25T21:21:47.136Z,99219.75
2023-01-25T21:24:13.496Z,99217.94
2023-01-25T21:26:39.927Z,99211.50
2023-01-25T21:29:06.281Z,99208.41
2023-01-25T21:31:33.441Z,99209.94
2023-01-25T21:33:59.794Z,99201.94
2023-01-25T21:36:26.119Z,99208.44
2023-01-25T21:38:53.317Z,99208.69
2023-01-25T21:41:20.557Z,99210.91
2023-01-25T21:44:06.258Z,99217.38
2023-01-25T21:46:33.161Z,99203.25
2023-01-25T21:49:38.204Z,99212.16
2023-01-25T21:52:04.595Z,99209.75
2023-01-25T21:54:31.629Z,99203.41
2023-01-25T21:56:58.384Z,99207.44
2023-01-25T21:59:24.782Z,99203.25
2023-01-25T22:01:51.494Z,99209.66
2023-01-25T22:04:17.982Z,99204.44
2023-01-25T22:06:44.307Z,99200.38
2023-01-25T22:09:10.839Z,99199.69
2023-01-25T22:11:37.148Z,99200.84
2023-01-25T22:14:03.465Z,99200.31
2023-01-25T22:16:30.276Z,99202.47
2023-01-25T22:18:56.665Z,99199.25
2023-01-25T22:21:23.700Z,99189.06
2023-01-25T22:23:50.127Z,99180.50
2023-01-25T22:26:17.170Z,99188.75
2023-01-25T22:28:46.348Z,99192.75
2023-01-25T22:31:13.348Z,99198.59
2023-01-25T22:33:39.841Z,99198.88
2023-01-25T22:36:06.618Z,99191.41
2023-01-25T22:38:32.931Z,99186.53
2023-01-25T22:41:05.301Z,99192.72
2023-01-25T22:43:31.799Z,99176.91
2023-01-25T22:45:58.156Z,99182.78
2023-01-25T22:48:24.527Z,99187.84
2023-01-25T22:50:50.850Z,99190.25
2023-01-25T22:53:17.163Z,99177.13
2023-01-25T22:55:43.576Z,99176.34
2023-01-25T22:58:09.972Z,99174.72
2023-01-25T23:00:39.019Z,99175.53
2023-01-25T23:03:05.363Z,99185.66
2023-01-25T23:05:32.015Z,99174.13
2023-01-25T23:07:59.711Z,99170.84
2023-01-25T23:10:26.089Z,99168.94
2023-01-25T23:12:53.366Z,99169.00
2023-01-25T23:15:19.914Z,99161.78
2023-01-25T23:18:04.804Z,99158.59
2023-01-25T23:20:31.121Z,99159.97
2023-01-25T23:22:57.454Z,99149.81
2023-01-25T23:25:23.844Z,99144.97
2023-01-25T23:27:50.158Z,99154.88
2023-01-25T23:30:16.569Z,99143.13
2023-01-25T23:32:49.245Z,99130.81
2023-01-25T23:35:18.809Z,99124.41
2023-01-25T23:37:45.961Z,99124.66
2023-01-25T23:40:13.049Z,99121.69
2023-01-25T23:42:39.483Z,99114.50
2023-01-25T23:45:06.690Z,99110.19
2023-01-25T23:47:33.018Z,99107.78
2023-01-25T23:49:59.371Z,99103.50
2023-01-25T23:52:25.699Z,99099.22
2023-01-25T23:54:52.074Z,99094.66
2023-01-25T23:57:18.413Z,99090.13
2023-01-25T23:59:44.742Z,99083.94
